Latest Weather Observations for Wilsons Promontory

IDV60801

Issued at 5:52 pm EST Thursday 18 July 2019 (issued every 10 minutes, with the page automatically refreshed every 10 minutes)

About weather observations | Map of weather stations | Latest weather observations for VIC | Other Formats
Station Details ID: 085096 Name: WILSONS PROMONTORY LIGHTHOUSE Lat: -39.13 Lon: 146.42 Height: 95.0 m
Data from the previous 72 hours. | See also: Recent months at Wilsons Promontory
Date/Time
EST
Temp
°C
App
Temp
°C
Dew
Point
°C
Rel
Hum
%
Delta-T
°C
Wind Press
QNH
hPa
Press
MSL
hPa
Rain since
9am
mm
Dir  Spd
km/h
Gust
km/h
Spd
kts
Gust
kts
18/05:40pm 10.6 3.9 3.9 63 3.0 NNW 28 48 15 26 1011.3 - 0.0
18/05:30pm 10.5 4.3 4.2 65 2.8 NNW 26 56 14 30 1011.3 - 0.0
18/05:19pm 10.2 3.0 4.8 69 2.4 NNW 32 50 17 27 1011.1 - 0.0
18/05:00pm 9.9 6.6 4.7 70 2.3 NNW 11 28 6 15 1012.0 - 0.0
18/04:30pm 10.1 4.0 4.9 70 2.4 W 26 52 14 28 1012.5 - 0.0
18/04:00pm 10.3 2.2 5.1 70 2.4 W 37 61 20 33 1012.5 - 0.0
18/03:30pm 10.6 3.2 5.2 69 2.5 W 33 54 18 29 1012.5 - 0.0
18/03:00pm 10.9 3.8 5.7 70 2.4 W 32 54 17 29 1012.3 1012.4 0.0
18/02:30pm 11.3 4.9 5.4 67 2.7 W 28 50 15 27 1012.3 - 0.0
18/02:00pm 11.3 3.6 5.4 67 2.7 W 35 70 19 38 1012.3 - 0.0
18/01:30pm 11.4 2.2 6.5 72 2.3 W 44 67 24 36 1012.5 - 0.0
18/01:00pm 11.6 3.0 6.7 72 2.3 W 41 67 22 36 1013.0 - 0.0
18/12:42pm 11.8 2.8 6.5 70 2.5 W 43 61 23 33 1013.3 - 0.0
18/12:30pm 12.2 2.7 5.1 62 3.3 W 44 59 24 32 1013.4 - 0.0
18/12:10pm 11.9 3.5 5.5 65 3.0 W 39 57 21 31 1013.8 - 0.0
18/12:00pm 11.8 3.8 5.7 66 2.9 W 37 52 20 28 1013.8 1013.9 0.0
18/11:31am 11.9 4.7 5.8 66 2.9 W 33 52 18 28 1014.2 - 0.0
18/11:30am 11.9 4.2 5.5 65 3.0 W 35 52 19 28 1014.2 - 0.0
18/11:14am 11.8 4.1 5.2 64 3.1 W 35 54 19 29 1014.4 - 0.0
18/11:00am 12.1 4.0 5.3 63 3.2 W 37 50 20 27 1014.4 - 0.0
18/10:35am 12.2 4.8 5.1 62 3.3 W 33 52 18 28 1014.4 - 0.0
18/10:30am 12.5 4.9 5.9 64 3.1 W 35 48 19 26 1014.6 - 0.0
18/10:06am 11.8 4.1 5.4 65 3.0 W 35 54 19 29 1014.6 - 0.0
18/10:00am 11.6 3.6 5.5 66 2.8 W 37 54 20 29 1014.4 - 0.0
18/09:36am 11.5 3.1 5.8 68 2.7 W 39 59 21 32 1014.1 - 0.0
18/09:30am 11.6 3.6 5.9 68 2.7 W 37 50 20 27 1014.1 - 0.0
18/09:18am 11.5 4.4 5.6 67 2.7 W 32 50 17 27 1014.2 - 0.0
18/09:00am 11.3 1.9 5.4 67 2.7 W 44 57 24 31 1014.3 1014.4 8.8
18/08:42am 11.4 3.4 5.5 67 2.7 W 37 57 20 31 1013.9 - 8.8
18/08:30am 11.3 2.8 5.2 66 2.8 W 39 52 21 28 1014.1 - 8.8
18/08:10am 11.2 2.3 5.1 66 2.8 W 41 59 22 32 1013.5 - 8.8
18/08:00am 11.2 1.9 5.7 69 2.6 W 44 56 24 30 1013.6 - 8.8
18/07:40am 10.8 3.9 7.1 78 1.8 WSW 33 52 18 28 1013.5 - 8.8
18/07:30am 10.6 2.1 7.1 79 1.7 WSW 41 52 22 28 1013.5 - 8.8
18/07:19am 10.2 -0.1 6.7 79 1.7 WSW 50 70 27 38 1012.9 - 8.8
18/07:07am 10.2 -4.0 6.0 75 2.0 WSW 70 78 38 42 1012.1 - 8.8
18/07:06am 10.4 0.8 6.2 75 2.0 WSW 46 78 25 42 1012.1 - 8.8
18/07:00am 10.5 1.7 5.7 72 2.2 W 41 54 22 29 1012.7 - 8.8
18/06:41am 11.2 2.0 5.5 68 2.6 W 43 61 23 33 1012.3 - 8.8
18/06:30am 10.8 1.6 5.6 70 2.4 W 43 56 23 30 1012.4 - 8.8
18/06:21am 10.8 -0.9 5.1 68 2.6 WSW 56 74 30 40 1012.4 - 8.8
18/06:00am 11.3 -1.5 4.7 64 3.0 WSW 61 74 33 40 1011.8 1011.9 8.8
18/05:30am 11.1 -2.6 5.8 70 2.5 WSW 67 78 36 42 1011.5 - 8.8
18/05:00am 11.1 -1.8 6.0 71 2.4 WSW 63 76 34 41 1011.2 - 8.8
18/04:30am 11.1 -2.9 6.3 72 2.3 WSW 69 93 37 50 1011.0 - 8.8
18/04:00am 10.2 -3.8 6.9 80 1.6 WSW 70 89 38 48 1010.7 - 8.8
18/03:53am 10.1 -3.8 6.6 79 1.6 WSW 69 78 37 42 1010.7 - 8.6
18/03:33am 10.7 0.8 6.8 77 1.9 W 48 67 26 36 1011.2 - 8.6
18/03:30am 10.7 0.1 6.8 77 1.9 W 52 67 28 36 1011.2 - 8.6
18/03:01am 10.1 -0.8 7.2 82 1.4 W 54 72 29 39 1010.9 - 8.6
18/03:00am 10.0 -1.3 7.1 82 1.4 W 56 72 30 39 1010.7 1010.8 8.6
18/02:30am 10.8 0.5 6.6 75 2.0 W 50 69 27 37 1010.7 - 7.8
18/02:00am 11.1 -1.7 6.6 74 2.1 WSW 63 93 34 50 1010.3 - 7.8
18/01:39am 11.1 -1.7 6.3 72 2.3 W 63 96 34 52 1009.8 - 7.8
18/01:33am 11.3 -1.1 6.6 73 2.2 WSW 61 109 33 59 1009.6 - 7.8
18/01:30am 11.3 -6.9 6.2 71 2.4 WSW 91 109 49 59 1008.8 - 7.8
18/01:26am 11.1 -6.6 6.5 73 2.2 WSW 89 109 48 59 1008.5 - 7.8
18/01:24am 11.1 -5.5 6.6 74 2.1 WSW 83 98 45 53 1009.0 - 7.8
18/01:19am 11.3 -0.6 7.2 76 2.0 W 59 104 32 56 1009.3 - 7.8
18/01:18am 11.3 -0.9 7.2 76 2.0 W 61 104 33 56 1009.2 - 7.8
18/01:11am 11.0 -5.9 6.9 76 2.0 WSW 85 104 46 56 1008.6 - 7.8
18/01:04am 10.9 -6.5 6.3 73 2.2 WSW 87 96 47 52 1008.8 - 7.8
18/01:00am 11.7 -0.9 5.6 66 2.8 W 61 89 33 48 1009.4 - 7.8
18/12:30am 11.0 -0.8 5.7 70 2.5 W 57 80 31 43 1009.5 - 7.8
18/12:00am 11.0 0.2 6.2 72 2.3 W 52 72 28 39 1009.5 1009.6 7.8
 
Date/Time
EST
Temp
°C
App
Temp
°C
Dew
Point
°C
Rel
Hum
%
Delta-T
°C
Wind Press
QNH
hPa
Press
MSL
hPa
Rain since
9am
mm
Dir  Spd
km/h
Gust
km/h
Spd
kts
Gust
kts
17/11:30pm 10.7 -2.6 5.7 71 2.3 W 65 85 35 46 1009.3 - 7.8
17/11:00pm 10.7 -0.6 7.0 78 1.8 W 56 82 30 44 1009.5 - 7.8
17/10:30pm 11.3 1.0 6.4 72 2.3 W 50 74 27 40 1009.4 - 7.0
17/10:00pm 11.4 -1.9 5.9 69 2.6 W 65 89 35 48 1009.2 - 7.0
17/09:54pm 11.5 -2.6 5.8 68 2.7 W 69 89 37 48 1009.0 - 7.0
17/09:53pm 11.6 -3.0 5.9 68 2.7 W 72 89 39 48 1008.8 - 7.0
17/09:30pm 11.9 1.7 5.3 64 3.1 W 48 74 26 40 1009.3 - 7.0
17/09:00pm 11.7 0.4 5.3 65 3.0 W 54 74 29 40 1009.0 1009.1 7.0
17/08:31pm 11.7 -0.1 5.6 66 2.8 W 57 76 31 41 1008.9 - 7.0
17/08:30pm 11.8 -0.3 5.9 67 2.8 W 59 76 32 41 1008.7 - 7.0
17/08:21pm 11.7 -1.6 5.8 67 2.8 W 65 78 35 42 1008.4 - 7.0
17/08:00pm 11.6 3.3 6.1 69 2.6 WSW 39 69 21 37 1008.8 - 7.0
17/07:59pm 11.6 4.1 6.1 69 2.6 WSW 35 72 19 39 1009.0 - 7.0
17/07:30pm 11.7 1.0 6.6 71 2.4 W 52 72 28 39 1008.4 - 7.0
17/07:13pm 11.8 0.6 6.1 68 2.7 W 54 89 29 48 1007.9 - 7.0
17/07:00pm 11.7 2.0 6.0 68 2.7 W 46 67 25 36 1008.7 - 7.0
17/06:30pm 11.6 -0.1 6.1 69 2.6 W 57 76 31 41 1008.0 - 7.0
17/06:24pm 11.7 -1.5 6.4 70 2.5 W 65 83 35 45 1008.0 - 7.0
17/06:17pm 11.7 -2.5 6.0 68 2.7 W 70 83 38 45 1007.3 - 7.0
17/06:00pm 11.6 1.5 7.3 75 2.1 W 50 72 27 39 1007.4 1007.5 7.0
17/05:30pm 11.6 0.5 8.6 82 1.5 W 57 83 31 45 1007.3 - 7.0
17/05:00pm 10.9 -1.4 8.5 85 1.2 W 63 96 34 52 1007.0 - 7.0
17/04:30pm 10.3 -0.4 8.2 87 1.0 W 54 89 29 48 1007.1 - 7.0
17/04:20pm 10.2 -0.1 8.3 88 0.9 W 52 104 28 56 1007.1 - 7.0
17/04:08pm 9.2 -6.4 6.6 84 1.2 W 78 106 42 57 1005.9 - 3.8
17/04:00pm 11.0 1.9 8.4 84 1.3 W 46 85 25 46 1007.1 - 1.6
17/03:30pm 11.1 2.5 8.0 81 1.5 W 43 69 23 37 1007.0 - 0.2
17/03:00pm 11.3 2.1 7.8 79 1.7 W 46 80 25 43 1007.1 1007.1 0.2
17/02:30pm 11.3 2.6 7.8 79 1.7 W 43 80 23 43 1007.3 - 0.2
17/02:00pm 11.2 1.9 7.7 79 1.7 W 46 78 25 42 1007.5 - 0.2
17/01:30pm 11.0 2.1 7.7 80 1.6 W 44 78 24 42 1008.0 - 0.2
17/01:00pm 11.0 2.2 7.9 81 1.5 W 44 74 24 40 1008.4 - 0.2
17/12:30pm 10.9 2.3 8.0 82 1.4 W 43 72 23 39 1008.8 - 0.2
17/12:00pm 10.6 1.9 7.8 83 1.4 W 43 78 23 42 1009.7 1009.8 0.2
17/11:30am 10.6 2.2 7.5 81 1.5 W 41 69 22 37 1010.4 - 0.0
17/11:00am 10.6 1.7 7.5 81 1.5 W 44 69 24 37 1010.9 - 0.0
17/10:30am 10.4 1.5 7.5 82 1.4 WNW 44 70 24 38 1011.5 - 0.0
17/10:00am 10.1 2.8 7.3 83 1.3 WNW 35 74 19 40 1011.8 - 0.0
17/09:30am 9.7 2.0 7.1 84 1.2 W 37 78 20 42 1012.1 - 0.0
17/09:29am 9.7 2.8 7.1 84 1.2 W 33 78 18 42 1012.3 - 0.0
17/09:13am 9.7 -1.6 7.0 83 1.3 W 56 78 30 42 1011.9 - 0.0
17/09:00am 9.8 3.4 6.9 82 1.4 W 30 72 16 39 1012.2 1012.3 6.2
17/08:59am 9.8 4.1 6.9 82 1.4 W 26 72 14 39 1012.4 - 6.2
17/08:30am 10.0 2.0 7.4 84 1.2 WNW 39 70 21 38 1012.5 - 6.2
17/08:00am 9.8 2.5 7.4 85 1.1 WNW 35 63 19 34 1012.8 - 6.2
17/07:30am 9.9 1.0 7.7 86 1.1 W 44 72 24 39 1012.6 - 6.2
17/07:00am 10.3 1.7 8.1 86 1.1 W 43 74 23 40 1012.6 - 6.2
17/06:30am 10.5 1.7 7.9 84 1.3 W 44 63 24 34 1013.4 - 6.2
17/06:00am 10.9 1.7 7.8 81 1.5 W 46 70 25 38 1013.2 1013.3 6.2
17/05:30am 10.9 0.3 8.5 85 1.2 W 54 76 29 41 1013.3 - 6.2
17/05:00am 10.0 -0.2 8.4 90 0.8 W 52 78 28 42 1013.4 - 6.2
17/04:30am 10.2 -0.8 8.6 90 0.8 W 56 78 30 42 1013.5 - 5.8
17/04:00am 10.4 0.2 8.7 89 0.8 W 52 76 28 41 1013.6 - 4.8
17/03:30am 10.7 1.6 8.6 87 1.0 W 46 74 25 40 1014.2 - 4.4
17/03:00am 10.6 1.8 8.2 85 1.2 W 44 63 24 34 1014.8 1014.9 4.2
17/02:30am 10.9 2.1 8.0 82 1.4 W 44 67 24 36 1014.9 - 4.2
17/02:00am 11.0 1.6 7.3 78 1.8 W 46 65 25 35 1015.5 - 4.2
17/01:32am 11.5 2.0 6.8 73 2.2 W 46 70 25 38 1015.3 - 4.2
17/01:30am 11.5 2.4 6.8 73 2.2 W 44 61 24 33 1015.7 - 4.2
17/01:03am 11.9 2.3 6.2 68 2.7 W 46 65 25 35 1015.8 - 4.2
17/01:00am 11.9 1.9 6.0 67 2.8 W 48 65 26 35 1015.6 - 4.2
17/12:30am 11.9 1.8 7.4 74 2.2 W 50 78 27 42 1015.4 - 4.2
17/12:17am 11.4 2.8 8.3 81 1.5 W 43 67 23 36 1015.8 - 4.0
17/12:13am 11.4 3.6 8.3 81 1.5 W 39 70 21 38 1016.0 - 4.0
17/12:05am 11.3 -1.1 8.0 80 1.6 W 63 82 34 44 1015.9 - 4.0
17/12:02am 11.6 -2.1 8.3 80 1.6 W 70 82 38 44 1015.4 - 4.0
17/12:00am 11.7 1.8 8.4 80 1.6 W 50 82 27 44 1015.4 1015.5 4.0
 
Date/Time
EST
Temp
°C
App
Temp
°C
Dew
Point
°C
Rel
Hum
%
Delta-T
°C
Wind Press
QNH
hPa
Press
MSL
hPa
Rain since
9am
mm
Dir  Spd
km/h
Gust
km/h
Spd
kts
Gust
kts
16/11:49pm 11.9 2.9 8.7 81 1.6 W 46 65 25 35 1016.0 - 4.0
16/11:30pm 11.6 1.1 8.8 83 1.4 W 54 69 29 37 1015.8 - 4.0
16/11:00pm 11.9 3.8 8.7 81 1.6 W 41 59 22 32 1016.4 - 4.0
16/10:37pm 12.1 2.7 8.9 81 1.6 W 48 67 26 36 1016.4 - 4.0
16/10:30pm 11.9 2.1 8.7 81 1.6 W 50 67 27 36 1016.3 - 4.0
16/10:00pm 12.0 2.3 9.2 83 1.4 W 50 69 27 37 1016.4 - 4.0
16/09:33pm 11.6 2.2 8.6 82 1.5 W 48 67 26 36 1016.6 - 4.0
16/09:30pm 11.7 1.9 8.7 82 1.5 W 50 67 27 36 1016.6 - 4.0
16/09:00pm 11.7 1.1 8.4 80 1.6 W 54 76 29 41 1016.5 1016.6 4.0
16/08:30pm 12.0 1.7 8.3 78 1.8 W 52 70 28 38 1016.8 - 4.0
16/08:00pm 12.1 1.8 9.5 84 1.3 W 54 72 29 39 1016.7 - 4.0
16/07:30pm 11.6 0.4 9.9 89 0.9 WSW 59 80 32 43 1016.9 - 4.0
16/07:00pm 11.7 1.1 10.1 90 0.8 WSW 56 76 30 41 1016.4 - 4.0
16/06:30pm 11.3 -0.7 9.7 90 0.8 W 63 83 34 45 1016.0 - 4.0
16/06:01pm 11.5 -0.5 9.8 89 0.9 W 63 82 34 44 1015.8 - 3.4
16/06:00pm 11.5 -0.9 9.8 89 0.9 W 65 82 35 44 1015.6 1015.7 3.4
16/05:34pm 11.5 0.3 9.8 89 0.9 W 59 80 32 43 1015.4 - 3.4
16/05:30pm 11.7 0.9 9.9 89 0.9 W 57 74 31 40 1015.7 - 3.4
16/05:00pm 11.6 1.0 9.9 89 0.9 W 56 76 30 41 1015.8 - 3.4
16/04:44pm 11.6 1.4 10.0 90 0.8 W 54 72 29 39 1015.7 - 3.4
16/04:30pm 11.7 0.9 10.1 90 0.8 W 57 72 31 39 1015.3 - 3.4
16/04:00pm 11.7 -0.2 10.1 90 0.8 W 63 87 34 47 1015.1 - 3.4
16/03:30pm 11.4 0.8 10.0 91 0.7 W 56 74 30 40 1015.3 - 3.4
16/03:00pm 11.5 1.3 10.1 91 0.7 W 54 74 29 40 1015.2 1015.3 3.2
16/02:30pm 11.4 0.2 10.0 91 0.7 W 59 83 32 45 1015.0 - 3.0
16/02:08pm 11.4 0.1 9.5 88 1.0 W 59 85 32 46 1015.2 - 1.8
16/02:00pm 11.5 0.2 9.4 87 1.1 W 59 76 32 41 1015.3 - 1.4
16/01:30pm 12.2 3.1 9.8 85 1.2 W 48 72 26 39 1015.7 - 0.8
16/01:00pm 12.0 1.8 9.9 87 1.1 W 54 85 29 46 1015.5 - 0.8
16/12:30pm 11.7 1.8 9.6 87 1.1 W 52 76 28 41 1015.6 - 0.8
16/12:00pm 12.0 1.1 9.7 86 1.2 W 57 83 31 45 1016.4 1016.5 0.6
16/11:30am 11.9 2.0 9.8 87 1.1 W 52 70 28 38 1016.5 - 0.6
16/11:00am 11.4 0.5 9.5 88 1.0 W 57 95 31 51 1016.7 - 0.6
16/10:30am 11.3 0.8 9.0 86 1.2 W 54 78 29 42 1016.6 - 0.2
16/10:00am 11.8 2.4 8.8 82 1.5 W 48 67 26 36 1017.0 - 0.0
16/09:30am 11.4 1.2 8.4 82 1.5 W 52 78 28 42 1016.3 - 0.0
16/09:00am 11.7 0.5 7.4 75 2.1 W 56 80 30 43 1016.4 1016.5 1.2
16/08:30am 11.1 0.3 7.8 80 1.6 W 54 87 29 47 1016.1 - 1.2
16/08:29am 11.2 0.8 7.9 80 1.6 W 52 87 28 47 1016.1 - 1.2
16/08:00am 11.5 1.7 7.2 75 2.1 W 48 67 26 36 1016.5 - 1.2
16/07:30am 11.4 0.8 7.1 75 2.1 W 52 76 28 41 1016.1 - 1.2
16/07:02am 11.4 -1.7 6.9 74 2.2 W 65 83 35 45 1015.6 - 1.2
16/07:00am 11.4 -2.0 6.9 74 2.2 W 67 83 36 45 1015.5 - 1.2
16/06:30am 10.7 -0.9 6.8 77 1.9 W 57 83 31 45 1015.1 - 1.2
16/06:00am 11.4 -2.1 6.5 72 2.3 W 67 87 36 47 1015.3 1015.4 1.2
16/05:30am 10.9 -2.1 7.0 77 1.9 W 65 85 35 46 1015.2 - 1.2
16/05:00am 11.8 0.3 6.9 72 2.4 W 57 83 31 45 1015.2 - 1.2
16/04:30am 11.7 -1.4 6.8 72 2.3 W 65 89 35 48 1015.0 - 1.2
16/04:00am 11.9 -1.2 6.6 70 2.5 W 65 93 35 50 1014.8 - 1.2
16/03:30am 11.6 0.8 7.7 77 1.9 W 54 87 29 47 1015.4 - 1.2
16/03:00am 11.3 0.5 7.6 78 1.8 W 54 76 29 41 1015.6 1015.7 1.2
16/02:30am 11.5 -0.4 6.8 73 2.2 W 59 80 32 43 1015.8 - 1.2
16/02:00am 11.2 -1.0 7.3 77 1.9 W 61 83 33 45 1015.7 - 1.2
16/01:30am 11.0 -0.1 8.2 83 1.4 W 56 78 30 42 1016.1 - 1.2
16/01:00am 11.3 0.9 7.6 78 1.8 W 52 78 28 42 1016.3 - 1.0
16/12:30am 11.6 -0.7 7.1 74 2.2 W 61 82 33 44 1016.3 - 1.0
16/12:00am 11.6 -0.2 7.5 76 2.0 W 59 80 32 43 1016.0 1016.2 1.0
 
Date/Time
EST
Temp
°C
App
Temp
°C
Dew
Point
°C
Rel
Hum
%
Delta-T
°C
Wind Press
QNH
hPa
Press
MSL
hPa
Rain since
9am
mm
Dir  Spd
km/h
Gust
km/h
Spd
kts
Gust
kts
15/11:30pm 11.5 0.2 8.0 79 1.7 W 57 82 31 44 1016.3 - 1.0
15/11:25pm 11.4 0.1 8.1 80 1.6 W 57 76 31 41 1016.1 - 1.0
15/11:15pm 11.2 -1.7 7.7 79 1.7 W 65 78 35 42 1016.3 - 1.0
15/11:06pm 11.9 3.0 7.6 75 2.1 W 44 85 24 46 1016.6 - 1.0
15/11:00pm 12.0 -1.4 7.1 72 2.4 W 67 89 36 48 1016.1 - 1.0
15/10:30pm 11.9 -0.9 8.0 77 1.9 W 65 87 35 47 1016.0 - 1.0
15/10:07pm 11.8 0.6 8.3 79 1.7 W 57 76 31 41 1016.1 - 1.0
15/09:30pm 11.7 0.0 8.0 78 1.8 W 59 82 32 44 1016.1 - 1.0
15/09:00pm 11.7 0.6 8.6 81 1.5 W 57 80 31 43 1016.0 1016.2 1.0
15/08:30pm 11.8 -0.3 9.5 86 1.2 W 63 82 34 44 1016.3 - 1.0
15/08:00pm 11.0 -2.2 9.4 90 0.8 W 69 91 37 49 1015.8 - 1.0
15/07:32pm 11.3 -1.1 9.6 89 0.9 W 65 85 35 46 1015.9 - 0.8
15/07:30pm 11.3 -0.7 9.6 89 0.9 W 63 80 34 43 1016.0 - 0.6
15/07:00pm 11.3 -0.8 9.4 88 1.0 W 63 83 34 45 1016.0 - 0.4
15/06:30pm 12.0 0.0 9.6 85 1.2 W 63 85 34 46 1015.4 - 0.0
15/06:00pm 11.8 -1.3 9.7 87 1.1 W 69 87 37 47 1014.3 1014.4 0.0

Other formats

Comma delimited format used in spreadsheet applications
http://www.bom.gov.au/fwo/IDV60801/IDV60801.94893.axf

JavaScript Object Notation format (JSON) in row-major order
http://www.bom.gov.au/fwo/IDV60801/IDV60801.94893.json

Data quality

Most of these data are generated automatically and are frequently updated. Quality checks on data are not normally performed. It is possible for incorrect values to appear. Refer to information at About Latest Weather Observations and please check the disclaimer before using these data.